sensor_id;sensor_type;location;lat;lon;timestamp;pressure;altitude;pressure_sealevel;temperature;humidity
67517;BME280;68821;59.134;37.894;2023-04-23T00:01:03;99584.59;;;8.76;50.75
67517;BME280;68821;59.134;37.894;2023-04-23T00:03:31;99581.13;;;8.72;50.71
67517;BME280;68821;59.134;37.894;2023-04-23T00:06:05;99575.97;;;8.71;50.90
67517;BME280;68821;59.134;37.894;2023-04-23T00:08:32;99571.63;;;8.65;50.84
67517;BME280;68821;59.134;37.894;2023-04-23T00:10:59;99568.22;;;8.64;50.95
67517;BME280;68821;59.134;37.894;2023-04-23T00:13:25;99588.72;;;8.64;50.89
67517;BME280;68821;59.134;37.894;2023-04-23T00:15:52;99581.84;;;8.62;51.26
67517;BME280;68821;59.134;37.894;2023-04-23T00:18:18;99585.25;;;8.61;51.50
67517;BME280;68821;59.134;37.894;2023-04-23T00:20:44;99570.56;;;8.48;51.22
67517;BME280;68821;59.134;37.894;2023-04-23T00:23:11;99581.72;;;8.53;51.16
67517;BME280;68821;59.134;37.894;2023-04-23T00:25:37;99591.16;;;8.55;51.50
67517;BME280;68821;59.134;37.894;2023-04-23T00:28:03;99589.41;;;8.53;51.54
67517;BME280;68821;59.134;37.894;2023-04-23T00:30:29;99597.13;;;8.54;51.59
67517;BME280;68821;59.134;37.894;2023-04-23T00:32:56;99584.25;;;8.50;51.67
67517;BME280;68821;59.134;37.894;2023-04-23T00:35:22;99591.13;;;8.52;52.05
67517;BME280;68821;59.134;37.894;2023-04-23T00:37:48;99595.44;;;8.56;52.07
67517;BME280;68821;59.134;37.894;2023-04-23T00:40:14;99586.84;;;8.53;52.39
67517;BME280;68821;59.134;37.894;2023-04-23T00:42:41;99596.28;;;8.57;52.22
67517;BME280;68821;59.134;37.894;2023-04-23T00:45:07;99599.72;;;8.56;52.09
67517;BME280;68821;59.134;37.894;2023-04-23T00:47:34;99597.19;;;8.57;52.03
67517;BME280;68821;59.134;37.894;2023-04-23T00:50:02;99595.44;;;8.56;52.27
67517;BME280;68821;59.134;37.894;2023-04-23T00:52:28;99603.09;;;8.55;51.79
67517;BME280;68821;59.134;37.894;2023-04-23T00:54:54;99589.41;;;8.53;51.87
67517;BME280;68821;59.134;37.894;2023-04-23T00:57:22;99592.78;;;8.49;52.16
67517;BME280;68821;59.134;37.894;2023-04-23T00:59:48;99603.03;;;8.47;52.56
67517;BME280;68821;59.134;37.894;2023-04-23T01:02:15;99602.97;;;8.44;52.62
67517;BME280;68821;59.134;37.894;2023-04-23T01:04:42;99609.78;;;8.42;52.52
67517;BME280;68821;59.134;37.894;2023-04-23T01:07:11;99609.72;;;8.39;52.88
67517;BME280;68821;59.134;37.894;2023-04-23T01:09:37;99596.81;;;8.34;53.07
67517;BME280;68821;59.134;37.894;2023-04-23T01:12:08;99595.78;;;8.20;53.31
67517;BME280;68821;59.134;37.894;2023-04-23T01:14:36;99598.34;;;8.20;52.68
67517;BME280;68821;59.134;37.894;2023-04-23T01:17:03;99606.03;;;8.20;53.09
67517;BME280;68821;59.134;37.894;2023-04-23T01:19:29;99604.16;;;8.10;53.09
67517;BME280;68821;59.134;37.894;2023-04-23T01:21:56;99596.34;;;7.99;53.22
67517;BME280;68821;59.134;37.894;2023-04-23T01:24:27;99606.66;;;8.02;53.39
67517;BME280;68821;59.134;37.894;2023-04-23T01:26:54;99608.25;;;7.97;53.01
67517;BME280;68821;59.134;37.894;2023-04-23T01:29:21;99598.75;;;7.88;53.55
67517;BME280;68821;59.134;37.894;2023-04-23T01:31:47;99606.47;;;7.91;53.93
67517;BME280;68821;59.134;37.894;2023-04-23T01:34:14;99617.56;;;7.90;53.36
67517;BME280;68821;59.134;37.894;2023-04-23T01:36:40;99612.38;;;7.87;54.08
67517;BME280;68821;59.134;37.894;2023-04-23T01:39:07;99589.97;;;7.72;54.15
67517;BME280;68821;59.134;37.894;2023-04-23T01:41:35;99607.94;;;7.77;54.31
67517;BME280;68821;59.134;37.894;2023-04-23T01:44:02;99624.25;;;7.82;54.39
67517;BME280;68821;59.134;37.894;2023-04-23T01:46:28;99625.91;;;7.80;54.28
67517;BME280;68821;59.134;37.894;2023-04-23T01:48:54;99625.88;;;7.78;54.39
67517;BME280;68821;59.134;37.894;2023-04-23T01:51:21;99624.22;;;7.80;54.15
67517;BME280;68821;59.134;37.894;2023-04-23T01:53:48;99625.00;;;7.76;54.17
67517;BME280;68821;59.134;37.894;2023-04-23T01:56:15;99625.84;;;7.75;53.86
67517;BME280;68821;59.134;37.894;2023-04-23T01:58:41;99617.28;;;7.75;54.60
67517;BME280;68821;59.134;37.894;2023-04-23T02:01:08;99625.78;;;7.72;54.61
67517;BME280;68821;59.134;37.894;2023-04-23T02:03:34;99623.19;;;7.69;54.69
67517;BME280;68821;59.134;37.894;2023-04-23T02:06:00;99623.19;;;7.71;54.88
67517;BME280;68821;59.134;37.894;2023-04-23T02:08:27;99624.13;;;7.74;54.93
67517;BME280;68821;59.134;37.894;2023-04-23T02:10:53;99629.19;;;7.73;54.43
67517;BME280;68821;59.134;37.894;2023-04-23T02:13:19;99632.66;;;7.73;54.56
67517;BME280;68821;59.134;37.894;2023-04-23T02:15:45;99624.06;;;7.70;54.76
67517;BME280;68821;59.134;37.894;2023-04-23T02:18:11;99622.41;;;7.73;54.95
67517;BME280;68821;59.134;37.894;2023-04-23T02:20:38;99632.69;;;7.76;54.74
67517;BME280;68821;59.134;37.894;2023-04-23T02:23:09;99638.75;;;7.81;54.61
67517;BME280;68821;59.134;37.894;2023-04-23T02:25:35;99636.19;;;7.81;55.14
67517;BME280;68821;59.134;37.894;2023-04-23T02:28:06;99643.03;;;7.84;54.76
67517;BME280;68821;59.134;37.894;2023-04-23T02:30:34;99642.19;;;7.85;54.79
67517;BME280;68821;59.134;37.894;2023-04-23T02:33:00;99640.50;;;7.87;54.71
67517;BME280;68821;59.134;37.894;2023-04-23T02:35:26;99644.84;;;7.91;54.41
67517;BME280;68821;59.134;37.894;2023-04-23T02:37:53;99647.41;;;7.91;54.82
67517;BME280;68821;59.134;37.894;2023-04-23T02:40:19;99642.28;;;7.91;54.92
67517;BME280;68821;59.134;37.894;2023-04-23T02:42:45;99645.72;;;7.93;54.92
67517;BME280;68821;59.134;37.894;2023-04-23T02:45:12;99635.53;;;7.95;55.48
67517;BME280;68821;59.134;37.894;2023-04-23T02:47:38;99646.72;;;8.00;54.92
67517;BME280;68821;59.134;37.894;2023-04-23T02:50:05;99647.59;;;8.03;55.66
67517;BME280;68821;59.134;37.894;2023-04-23T02:52:32;99609.78;;;7.84;55.28
67517;BME280;68821;59.134;37.894;2023-04-23T02:55:01;99651.09;;;8.09;55.74
67517;BME280;68821;59.134;37.894;2023-04-23T02:57:28;99657.97;;;8.11;55.03
67517;BME280;68821;59.134;37.894;2023-04-23T02:59:54;99648.56;;;8.12;55.50
67517;BME280;68821;59.134;37.894;2023-04-23T03:02:20;99649.53;;;8.17;55.22
67517;BME280;68821;59.134;37.894;2023-04-23T03:04:46;99657.22;;;8.18;55.14
67517;BME280;68821;59.134;37.894;2023-04-23T03:07:13;99654.66;;;8.20;54.98
67517;BME280;68821;59.134;37.894;2023-04-23T03:09:42;99659.00;;;8.22;55.01
67517;BME280;68821;59.134;37.894;2023-04-23T03:12:08;99669.25;;;8.24;55.17
67517;BME280;68821;59.134;37.894;2023-04-23T03:14:34;99664.13;;;8.24;55.32
67517;BME280;68821;59.134;37.894;2023-04-23T03:17:00;99662.44;;;8.26;55.22
67517;BME280;68821;59.134;37.894;2023-04-23T03:19:27;99666.75;;;8.29;55.49
67517;BME280;68821;59.134;37.894;2023-04-23T03:21:53;99668.44;;;8.28;55.43
67517;BME280;68821;59.134;37.894;2023-04-23T03:24:19;99673.63;;;8.31;55.39
67517;BME280;68821;59.134;37.894;2023-04-23T03:26:45;99672.81;;;8.34;55.48
67517;BME280;68821;59.134;37.894;2023-04-23T03:29:11;99672.84;;;8.35;55.61
67517;BME280;68821;59.134;37.894;2023-04-23T03:31:37;99673.75;;;8.39;55.69
67517;BME280;68821;59.134;37.894;2023-04-23T03:34:03;99666.91;;;8.39;55.73
67517;BME280;68821;59.134;37.894;2023-04-23T03:36:29;99669.53;;;8.41;55.83
67517;BME280;68821;59.134;37.894;2023-04-23T03:38:55;99678.88;;;8.39;55.74
67517;BME280;68821;59.134;37.894;2023-04-23T03:41:21;99678.97;;;8.43;55.23
67517;BME280;68821;59.134;37.894;2023-04-23T03:43:47;99688.38;;;8.46;55.47
67517;BME280;68821;59.134;37.894;2023-04-23T03:46:14;99685.78;;;8.44;55.34
67517;BME280;68821;59.134;37.894;2023-04-23T03:48:40;99690.03;;;8.42;55.41
67517;BME280;68821;59.134;37.894;2023-04-23T03:51:06;99690.09;;;8.45;55.72
67517;BME280;68821;59.134;37.894;2023-04-23T03:53:32;99689.22;;;8.45;55.41
67517;BME280;68821;59.134;37.894;2023-04-23T03:55:58;99690.94;;;8.46;55.33
67517;BME280;68821;59.134;37.894;2023-04-23T03:58:24;99668.63;;;8.39;55.30
67517;BME280;68821;59.134;37.894;2023-04-23T04:00:50;99686.66;;;8.46;55.27
67517;BME280;68821;59.134;37.894;2023-04-23T04:03:17;99691.06;;;8.54;55.41
67517;BME280;68821;59.134;37.894;2023-04-23T04:05:43;99685.06;;;8.55;55.55
67517;BME280;68821;59.134;37.894;2023-04-23T04:08:09;99684.28;;;8.59;55.36
67517;BME280;68821;59.134;37.894;2023-04-23T04:10:35;99694.59;;;8.62;55.41
67517;BME280;68821;59.134;37.894;2023-04-23T04:13:02;99694.59;;;8.65;55.41
67517;BME280;68821;59.134;37.894;2023-04-23T04:15:28;99701.53;;;8.71;55.35
67517;BME280;68821;59.134;37.894;2023-04-23T04:17:54;99697.28;;;8.73;55.19
67517;BME280;68821;59.134;37.894;2023-04-23T04:20:20;99699.94;;;8.79;55.67
67517;BME280;68821;59.134;37.894;2023-04-23T04:22:46;99699.16;;;8.84;55.34
67517;BME280;68821;59.134;37.894;2023-04-23T04:25:12;99696.63;;;8.89;55.69
67517;BME280;68821;59.134;37.894;2023-04-23T04:27:38;99692.44;;;8.94;55.81
67517;BME280;68821;59.134;37.894;2023-04-23T04:30:06;99701.91;;;9.01;54.86
67517;BME280;68821;59.134;37.894;2023-04-23T04:32:32;99695.97;;;9.05;54.76
67517;BME280;68821;59.134;37.894;2023-04-23T04:34:59;99698.59;;;9.09;54.65
67517;BME280;68821;59.134;37.894;2023-04-23T04:37:25;99709.81;;;9.18;54.70
67517;BME280;68821;59.134;37.894;2023-04-23T04:39:52;99706.47;;;9.25;54.50
67517;BME280;68821;59.134;37.894;2023-04-23T04:42:19;99704.81;;;9.29;55.08
67517;BME280;68821;59.134;37.894;2023-04-23T04:44:45;99705.69;;;9.33;54.71
67517;BME280;68821;59.134;37.894;2023-04-23T04:47:11;99704.94;;;9.40;55.06
67517;BME280;68821;59.134;37.894;2023-04-23T04:49:38;99709.31;;;9.50;54.91
67517;BME280;68821;59.134;37.894;2023-04-23T04:52:04;99709.38;;;9.56;54.99
67517;BME280;68821;59.134;37.894;2023-04-23T04:54:31;99715.41;;;9.60;54.76
67517;BME280;68821;59.134;37.894;2023-04-23T04:56:57;99717.16;;;9.67;55.14
67517;BME280;68821;59.134;37.894;2023-04-23T04:59:23;99720.66;;;9.72;54.37
67517;BME280;68821;59.134;37.894;2023-04-23T05:01:49;99722.41;;;9.78;54.36
67517;BME280;68821;59.134;37.894;2023-04-23T05:04:15;99714.72;;;9.79;54.61
67517;BME280;68821;59.134;37.894;2023-04-23T05:06:41;99709.66;;;9.85;53.82
67517;BME280;68821;59.134;37.894;2023-04-23T05:09:08;99719.94;;;9.90;54.31
67517;BME280;68821;59.134;37.894;2023-04-23T05:11:35;99718.28;;;9.95;53.50
67517;BME280;68821;59.134;37.894;2023-04-23T05:14:01;99702.88;;;9.94;53.81
67517;BME280;68821;59.134;37.894;2023-04-23T05:16:29;99719.25;;;10.05;54.13
67517;BME280;68821;59.134;37.894;2023-04-23T05:18:55;99708.97;;;10.06;54.02
67517;BME280;68821;59.134;37.894;2023-04-23T05:21:22;99713.28;;;10.11;53.42
67517;BME280;68821;59.134;37.894;2023-04-23T05:23:48;99714.97;;;10.08;53.54
67517;BME280;68821;59.134;37.894;2023-04-23T05:26:14;99722.75;;;10.18;53.96
67517;BME280;68821;59.134;37.894;2023-04-23T05:28:40;99732.22;;;10.22;53.46
67517;BME280;68821;59.134;37.894;2023-04-23T05:31:06;99733.97;;;10.26;53.13
67517;BME280;68821;59.134;37.894;2023-04-23T05:33:32;99703.88;;;10.13;53.27
67517;BME280;68821;59.134;37.894;2023-04-23T05:35:59;99733.19;;;10.32;53.24
67517;BME280;68821;59.134;37.894;2023-04-23T05:38:25;99728.91;;;10.37;53.40
67517;BME280;68821;59.134;37.894;2023-04-23T05:40:51;99726.41;;;10.40;52.97
67517;BME280;68821;59.134;37.894;2023-04-23T05:43:17;99724.72;;;10.48;52.81
67517;BME280;68821;59.134;37.894;2023-04-23T05:45:44;99733.34;;;10.58;52.55
67517;BME280;68821;59.134;37.894;2023-04-23T05:48:10;99729.09;;;10.63;52.14
67517;BME280;68821;59.134;37.894;2023-04-23T05:50:36;99730.84;;;10.67;52.18
67517;BME280;68821;59.134;37.894;2023-04-23T05:53:03;99725.72;;;10.72;51.99
67517;BME280;68821;59.134;37.894;2023-04-23T05:55:29;99720.66;;;10.81;51.82
67517;BME280;68821;59.134;37.894;2023-04-23T05:57:55;99718.97;;;10.89;51.09
67517;BME280;68821;59.134;37.894;2023-04-23T06:00:22;99720.72;;;11.02;51.37
67517;BME280;68821;59.134;37.894;2023-04-23T06:02:48;99727.66;;;11.14;50.95
67517;BME280;68821;59.134;37.894;2023-04-23T06:05:14;99708.78;;;11.14;50.14
67517;BME280;68821;59.134;37.894;2023-04-23T06:07:41;99720.88;;;11.35;50.41
67517;BME280;68821;59.134;37.894;2023-04-23T06:10:07;99732.03;;;11.46;50.31
67517;BME280;68821;59.134;37.894;2023-04-23T06:12:34;99737.22;;;11.55;50.06
67517;BME280;68821;59.134;37.894;2023-04-23T06:15:05;99738.09;;;11.66;49.02
67517;BME280;68821;59.134;37.894;2023-04-23T06:17:32;99734.66;;;11.77;48.74
67517;BME280;68821;59.134;37.894;2023-04-23T06:19:58;99739.00;;;11.84;48.50
67517;BME280;68821;59.134;37.894;2023-04-23T06:22:25;99733.00;;;11.91;48.45
67517;BME280;68821;59.134;37.894;2023-04-23T06:24:51;99722.72;;;11.96;48.54
67517;BME280;68821;59.134;37.894;2023-04-23T06:27:17;99721.00;;;12.02;47.83
67517;BME280;68821;59.134;37.894;2023-04-23T06:29:44;99731.31;;;12.13;48.26
67517;BME280;68821;59.134;37.894;2023-04-23T06:32:10;99723.59;;;12.21;47.67
67517;BME280;68821;59.134;37.894;2023-04-23T06:34:37;99727.88;;;12.31;47.96
67517;BME280;68821;59.134;37.894;2023-04-23T06:37:03;99739.03;;;12.39;47.53
67517;BME280;68821;59.134;37.894;2023-04-23T06:39:29;99726.13;;;12.44;47.39
67517;BME280;68821;59.134;37.894;2023-04-23T06:41:56;99731.28;;;12.50;46.74
67517;BME280;68821;59.134;37.894;2023-04-23T06:44:23;99732.13;;;12.58;47.01
67517;BME280;68821;59.134;37.894;2023-04-23T06:46:49;99729.53;;;12.64;46.72
67517;BME280;68821;59.134;37.894;2023-04-23T06:49:15;99726.06;;;12.76;46.41
67517;BME280;68821;59.134;37.894;2023-04-23T06:51:41;99720.91;;;12.82;46.43
67517;BME280;68821;59.134;37.894;2023-04-23T06:54:07;99726.03;;;12.93;46.18
67517;BME280;68821;59.134;37.894;2023-04-23T06:56:33;99729.44;;;13.01;46.10
67517;BME280;68821;59.134;37.894;2023-04-23T06:58:59;99728.56;;;13.05;45.80
67517;BME280;68821;59.134;37.894;2023-04-23T07:01:25;99728.50;;;13.18;45.81
67517;BME280;68821;59.134;37.894;2023-04-23T07:03:52;99729.34;;;13.26;45.42
67517;BME280;68821;59.134;37.894;2023-04-23T07:06:19;99739.66;;;13.35;45.26
67517;BME280;68821;59.134;37.894;2023-04-23T07:08:45;99741.34;;;13.45;45.41
67517;BME280;68821;59.134;37.894;2023-04-23T07:11:12;99730.91;;;13.61;44.88
67517;BME280;68821;59.134;37.894;2023-04-23T07:13:38;99731.63;;;13.83;45.18
67517;BME280;68821;59.134;37.894;2023-04-23T07:16:04;99735.69;;;14.18;44.80
67517;BME280;68821;59.134;37.894;2023-04-23T07:18:31;99732.75;;;14.59;44.58
67517;BME280;68821;59.134;37.894;2023-04-23T07:20:57;99730.66;;;14.95;43.70
67517;BME280;68821;59.134;37.894;2023-04-23T07:23:23;99725.88;;;15.31;43.15
67517;BME280;68821;59.134;37.894;2023-04-23T07:25:49;99722.13;;;15.55;43.04
67517;BME280;68821;59.134;37.894;2023-04-23T07:28:15;99717.34;;;15.86;42.69
67517;BME280;68821;59.134;37.894;2023-04-23T07:30:41;99719.47;;;16.16;42.16
67517;BME280;68821;59.134;37.894;2023-04-23T07:33:07;99730.25;;;16.42;41.89
67517;BME280;68821;59.134;37.894;2023-04-23T07:35:33;99721.16;;;16.69;41.67
67517;BME280;68821;59.134;37.894;2023-04-23T07:37:59;99729.50;;;16.85;41.53
67517;BME280;68821;59.134;37.894;2023-04-23T07:40:25;99714.72;;;16.89;41.34
67517;BME280;68821;59.134;37.894;2023-04-23T07:42:51;99723.44;;;16.86;41.11
67517;BME280;68821;59.134;37.894;2023-04-23T07:45:18;99731.34;;;16.79;41.37
67517;BME280;68821;59.134;37.894;2023-04-23T07:47:44;99734.06;;;16.73;41.21
67517;BME280;68821;59.134;37.894;2023-04-23T07:50:11;99730.66;;;16.69;41.15
67517;BME280;68821;59.134;37.894;2023-04-23T07:52:38;99722.03;;;16.67;41.13
67517;BME280;68821;59.134;37.894;2023-04-23T07:55:04;99733.44;;;16.60;41.23
67517;BME280;68821;59.134;37.894;2023-04-23T07:57:30;99724.84;;;16.55;41.43
67517;BME280;68821;59.134;37.894;2023-04-23T07:59:57;99714.66;;;16.45;41.41
67517;BME280;68821;59.134;37.894;2023-04-23T08:02:23;99728.50;;;16.44;41.51
67517;BME280;68821;59.134;37.894;2023-04-23T08:04:51;99724.19;;;16.45;41.27
67517;BME280;68821;59.134;37.894;2023-04-23T08:07:21;99724.13;;;16.48;41.41
67517;BME280;68821;59.134;37.894;2023-04-23T08:09:47;99722.31;;;16.52;41.37
67517;BME280;68821;59.134;37.894;2023-04-23T08:12:13;99724.00;;;16.54;41.33
67517;BME280;68821;59.134;37.894;2023-04-23T08:14:42;99722.22;;;16.58;41.38
67517;BME280;68821;59.134;37.894;2023-04-23T08:17:09;99717.91;;;16.57;41.39
67517;BME280;68821;59.134;37.894;2023-04-23T08:19:35;99710.94;;;16.59;41.29
67517;BME280;68821;59.134;37.894;2023-04-23T08:22:01;99714.44;;;16.58;41.43
67517;BME280;68821;59.134;37.894;2023-04-23T08:24:27;99719.66;;;16.56;41.33
67517;BME280;68821;59.134;37.894;2023-04-23T08:26:53;99696.53;;;16.42;41.37
67517;BME280;68821;59.134;37.894;2023-04-23T08:29:19;99716.28;;;16.51;41.31
67517;BME280;68821;59.134;37.894;2023-04-23T08:31:45;99718.00;;;16.52;41.69
67517;BME280;68821;59.134;37.894;2023-04-23T08:34:11;99701.34;;;16.64;41.06
67517;BME280;68821;59.134;37.894;2023-04-23T08:36:39;99707.97;;;16.82;41.13
67517;BME280;68821;59.134;37.894;2023-04-23T08:39:05;99703.41;;;16.93;41.30
67517;BME280;68821;59.134;37.894;2023-04-23T08:41:40;99702.19;;;17.11;40.86
67517;BME280;68821;59.134;37.894;2023-04-23T08:44:21;99703.63;;;17.24;40.97
67517;BME280;68821;59.134;37.894;2023-04-23T08:46:47;99701.53;;;17.40;40.87
67517;BME280;68821;59.134;37.894;2023-04-23T08:49:16;99710.66;;;17.60;40.11
67517;BME280;68821;59.134;37.894;2023-04-23T08:51:47;99696.56;;;17.70;39.96
67517;BME280;68821;59.134;37.894;2023-04-23T08:54:19;99692.78;;;17.82;39.88
67517;BME280;68821;59.134;37.894;2023-04-23T08:56:47;99695.13;;;17.94;39.88
67517;BME280;68821;59.134;37.894;2023-04-23T08:59:15;99709.44;;;18.12;39.33
67517;BME280;68821;59.134;37.894;2023-04-23T09:01:43;99689.06;;;18.29;39.13
67517;BME280;68821;59.134;37.894;2023-04-23T09:04:09;99693.97;;;18.40;38.81
67517;BME280;68821;59.134;37.894;2023-04-23T09:06:36;99688.56;;;18.48;38.92
67517;BME280;68821;59.134;37.894;2023-04-23T09:09:02;99689.16;;;18.58;38.55
67517;BME280;68821;59.134;37.894;2023-04-23T09:11:29;99693.34;;;18.63;38.66
67517;BME280;68821;59.134;37.894;2023-04-23T09:13:56;99691.66;;;18.62;38.22
67517;BME280;68821;59.134;37.894;2023-04-23T09:16:22;99690.19;;;18.52;38.66
67517;BME280;68821;59.134;37.894;2023-04-23T09:18:48;99680.69;;;18.49;38.37
67517;BME280;68821;59.134;37.894;2023-04-23T09:21:16;99675.59;;;18.46;38.55
67517;BME280;68821;59.134;37.894;2023-04-23T09:23:42;99692.72;;;18.55;38.36
67517;BME280;68821;59.134;37.894;2023-04-23T09:26:08;99696.38;;;18.48;38.14
67517;BME280;68821;59.134;37.894;2023-04-23T09:28:35;99685.50;;;18.32;38.33
67517;BME280;68821;59.134;37.894;2023-04-23T09:31:04;99692.72;;;18.21;38.33
67517;BME280;68821;59.134;37.894;2023-04-23T09:33:33;99695.47;;;18.16;38.19
67517;BME280;68821;59.134;37.894;2023-04-23T09:36:10;99681.72;;;18.11;38.22
67517;BME280;68821;59.134;37.894;2023-04-23T09:38:40;99693.03;;;18.08;38.24
67517;BME280;68821;59.134;37.894;2023-04-23T09:41:25;99688.88;;;18.03;38.41
67517;BME280;68821;59.134;37.894;2023-04-23T09:43:55;99683.53;;;18.07;38.33
67517;BME280;68821;59.134;37.894;2023-04-23T09:46:32;99690.06;;;18.24;38.13
67517;BME280;68821;59.134;37.894;2023-04-23T09:49:01;99686.34;;;18.33;37.99
67517;BME280;68821;59.134;37.894;2023-04-23T09:51:29;99676.59;;;18.41;37.90
67517;BME280;68821;59.134;37.894;2023-04-23T09:53:56;99678.22;;;18.45;37.51
67517;BME280;68821;59.134;37.894;2023-04-23T09:56:23;99679.78;;;18.52;37.31
67517;BME280;68821;59.134;37.894;2023-04-23T09:58:49;99668.47;;;18.53;37.11
67517;BME280;68821;59.134;37.894;2023-04-23T10:01:15;99660.34;;;18.64;37.12
67517;BME280;68821;59.134;37.894;2023-04-23T10:03:42;99665.03;;;18.84;36.69
67517;BME280;68821;59.134;37.894;2023-04-23T10:06:14;99667.13;;;19.02;37.14
67517;BME280;68821;59.134;37.894;2023-04-23T10:08:41;99657.03;;;20.28;36.46
67517;BME280;68821;59.134;37.894;2023-04-23T10:11:09;99644.44;;;22.61;33.54
67517;BME280;68821;59.134;37.894;2023-04-23T10:13:36;99657.19;;;23.08;32.23
67517;BME280;68821;59.134;37.894;2023-04-23T10:16:03;99657.78;;;22.36;31.97
67517;BME280;68821;59.134;37.894;2023-04-23T10:18:31;99673.38;;;21.97;32.82
67517;BME280;68821;59.134;37.894;2023-04-23T10:20:59;99685.22;;;21.85;32.17
67517;BME280;68821;59.134;37.894;2023-04-23T10:23:26;99675.91;;;21.32;32.48
67517;BME280;68821;59.134;37.894;2023-04-23T10:25:53;99678.34;;;20.91;32.65
67517;BME280;68821;59.134;37.894;2023-04-23T10:28:21;99687.59;;;20.51;32.99
67517;BME280;68821;59.134;37.894;2023-04-23T10:30:53;99680.91;;;20.17;32.99
67517;BME280;68821;59.134;37.894;2023-04-23T10:33:19;99690.56;;;20.90;33.31
67517;BME280;68821;59.134;37.894;2023-04-23T10:35:47;99684.50;;;22.44;31.68
67517;BME280;68821;59.134;37.894;2023-04-23T10:38:14;99679.09;;;22.47;31.14
67517;BME280;68821;59.134;37.894;2023-04-23T10:40:44;99663.72;;;21.99;31.24
67517;BME280;68821;59.134;37.894;2023-04-23T10:43:12;99676.63;;;21.59;31.66
67517;BME280;68821;59.134;37.894;2023-04-23T10:45:38;99675.50;;;21.21;32.13
67517;BME280;68821;59.134;37.894;2023-04-23T10:48:04;99663.63;;;20.88;32.64
67517;BME280;68821;59.134;37.894;2023-04-23T10:50:34;99659.41;;;21.32;32.76
67517;BME280;68821;59.134;37.894;2023-04-23T10:53:02;99661.41;;;23.49;30.99
67517;BME280;68821;59.134;37.894;2023-04-23T10:55:30;99654.22;;;24.24;29.58
67517;BME280;68821;59.134;37.894;2023-04-23T10:58:06;99661.72;;;23.60;29.59
67517;BME280;68821;59.134;37.894;2023-04-23T11:05:54;99668.25;;;21.94;31.50
67517;BME280;68821;59.134;37.894;2023-04-23T11:08:21;99671.34;;;22.25;30.71
67517;BME280;68821;59.134;37.894;2023-04-23T11:10:53;99685.66;;;22.37;30.02
67517;BME280;68821;59.134;37.894;2023-04-23T11:13:23;99683.59;;;22.03;30.17
67517;BME280;68821;59.134;37.894;2023-04-23T11:16:11;99678.16;;;21.43;30.72
67517;BME280;68821;59.134;37.894;2023-04-23T11:18:55;99674.06;;;21.12;31.34
67517;BME280;68821;59.134;37.894;2023-04-23T11:22:02;99666.31;;;20.87;31.67
67517;BME280;68821;59.134;37.894;2023-04-23T11:24:37;99672.16;;;20.70;31.83
67517;BME280;68821;59.134;37.894;2023-04-23T11:27:17;99673.44;;;20.58;32.06
67517;BME280;68821;59.134;37.894;2023-04-23T11:29:45;99668.03;;;20.63;31.98
67517;BME280;68821;59.134;37.894;2023-04-23T11:32:15;99679.75;;;20.51;32.26
67517;BME280;68821;59.134;37.894;2023-04-23T11:34:46;99669.41;;;20.23;32.04
67517;BME280;68821;59.134;37.894;2023-04-23T11:37:15;99682.94;;;20.09;32.02
67517;BME280;68821;59.134;37.894;2023-04-23T11:39:44;99677.88;;;20.04;32.05
67517;BME280;68821;59.134;37.894;2023-04-23T11:42:14;99682.78;;;20.14;32.07
67517;BME280;68821;59.134;37.894;2023-04-23T11:44:42;99669.31;;;20.76;31.54
67517;BME280;68821;59.134;37.894;2023-04-23T11:47:10;99664.75;;;20.81;31.59
67517;BME280;68821;59.134;37.894;2023-04-23T11:49:41;99681.06;;;20.64;31.63
67517;BME280;68821;59.134;37.894;2023-04-23T11:52:10;99678.88;;;20.50;31.92
67517;BME280;68821;59.134;37.894;2023-04-23T11:54:39;99668.56;;;20.22;31.93
67517;BME280;68821;59.134;37.894;2023-04-23T11:57:06;99677.34;;;20.20;32.27
67517;BME280;68821;59.134;37.894;2023-04-23T11:59:33;99668.38;;;20.28;32.36
67517;BME280;68821;59.134;37.894;2023-04-23T12:01:59;99678.16;;;20.47;32.03
67517;BME280;68821;59.134;37.894;2023-04-23T12:04:28;99674.63;;;20.48;31.97
67517;BME280;68821;59.134;37.894;2023-04-23T12:06:55;99681.84;;;20.41;32.14
67517;BME280;68821;59.134;37.894;2023-04-23T12:09:24;99684.25;;;20.22;31.97
67517;BME280;68821;59.134;37.894;2023-04-23T12:11:51;99678.44;;;20.14;32.53
67517;BME280;68821;59.134;37.894;2023-04-23T12:14:24;99679.34;;;20.12;32.58
67517;BME280;68821;59.134;37.894;2023-04-23T12:16:53;99671.78;;;20.30;32.35
67517;BME280;68821;59.134;37.894;2023-04-23T12:19:30;99670.34;;;20.47;32.19
67517;BME280;68821;59.134;37.894;2023-04-23T12:22:01;99674.38;;;20.56;32.02
67517;BME280;68821;59.134;37.894;2023-04-23T12:24:29;99666.97;;;20.68;31.97
67517;BME280;68821;59.134;37.894;2023-04-23T12:26:59;99667.00;;;20.92;31.89
67517;BME280;68821;59.134;37.894;2023-04-23T12:29:26;99665.63;;;21.05;31.65
67517;BME280;68821;59.134;37.894;2023-04-23T12:31:57;99662.75;;;21.12;31.46
67517;BME280;68821;59.134;37.894;2023-04-23T12:34:24;99662.03;;;21.08;31.55
67517;BME280;68821;59.134;37.894;2023-04-23T12:36:53;99665.38;;;21.12;31.58
67517;BME280;68821;59.134;37.894;2023-04-23T12:39:28;99651.88;;;21.00;31.53
67517;BME280;68821;59.134;37.894;2023-04-23T12:42:05;99656.50;;;21.16;31.37
67517;BME280;68821;59.134;37.894;2023-04-23T12:44:34;99657.28;;;21.41;31.53
67517;BME280;68821;59.134;37.894;2023-04-23T12:47:08;99666.41;;;21.75;31.26
67517;BME280;68821;59.134;37.894;2023-04-23T12:49:35;99656.72;;;22.20;30.62
67517;BME280;68821;59.134;37.894;2023-04-23T12:52:03;99658.78;;;22.73;30.29
67517;BME280;68821;59.134;37.894;2023-04-23T12:54:32;99645.25;;;23.76;29.25
67517;BME280;68821;59.134;37.894;2023-04-23T12:56:59;99651.03;;;24.69;28.64
67517;BME280;68821;59.134;37.894;2023-04-23T12:59:29;99655.47;;;26.39;26.98
67517;BME280;68821;59.134;37.894;2023-04-23T13:01:57;99665.59;;;27.04;25.84